Time;durP1;ratioP1;P1;durP2;ratioP2;P2;SDS_P1;SDS_P2;PMS_P1;PMS_P2;Temp;Humidity;BMP_temperature;BMP_pressure;BME280_temperature;BME280_humidity;BME280_pressure;Samples;Min_cycle;Max_cycle;Signal;HPM_P1;HPM_P2
2021/10/29 00:02:08;;;;;;;14.27;12.77;;;;;;;10.97;75.61;100887.88;5061464;28;20187;-67
2021/10/29 00:04:33;;;;;;;14.60;13.10;;;;;;;10.79;75.80;100889.41;5078644;28;20614;-67
2021/10/29 00:06:59;;;;;;;14.57;12.77;;;;;;;10.67;76.37;100890.16;5078673;28;20172;-66
2021/10/29 00:09:24;;;;;;;16.47;13.37;;;;;;;10.45;77.82;100891.63;5079023;28;20219;-66
2021/10/29 00:11:49;;;;;;;16.10;13.03;;;;;;;10.22;77.57;100888.69;5078454;28;20173;-67
2021/10/29 00:14:15;;;;;;;16.50;13.33;;;;;;;10.74;77.62;100878.94;5061023;28;20275;-66
2021/10/29 00:16:40;;;;;;;15.37;13.10;;;;;;;10.72;76.16;100883.25;5078556;28;20173;-66
2021/10/29 00:19:05;;;;;;;14.23;12.83;;;;;;;10.62;76.42;100886.59;5078319;28;20310;-66
2021/10/29 00:21:31;;;;;;;15.43;12.37;;;;;;;10.73;76.41;100882.41;5078203;28;20212;-66
2021/10/29 00:23:56;;;;;;;14.67;13.17;;;;;;;10.35;76.57;100882.81;5078686;28;20169;-65
2021/10/29 00:26:23;;;;;;;13.73;12.30;;;;;;;10.82;76.79;100884.22;5078441;28;20257;-68
2021/10/29 00:28:48;;;;;;;14.87;13.20;;;;;;;11.01;76.89;100884.44;5078469;28;20196;-66
2021/10/29 00:31:14;;;;;;;17.13;13.10;;;;;;;10.85;75.77;100889.50;5078561;28;20451;-67
2021/10/29 00:33:39;;;;;;;18.83;13.30;;;;;;;10.75;76.29;100882.41;5078264;28;20251;-66
2021/10/29 00:36:05;;;;;;;16.70;14.50;;;;;;;10.71;77.14;100886.72;5061214;28;20507;-65
2021/10/29 00:38:30;;;;;;;14.03;12.63;;;;;;;10.55;76.78;100896.13;5078924;28;20311;-64
2021/10/29 00:40:55;;;;;;;16.13;13.57;;;;;;;10.03;78.93;100901.47;5078003;28;20221;-65
2021/10/29 00:43:20;;;;;;;14.60;12.93;;;;;;;9.94;79.57;100906.53;5078372;28;20169;-65
2021/10/29 00:45:47;;;;;;;16.70;13.93;;;;;;;10.42;77.37;100909.84;5079004;28;20226;-65
2021/10/29 00:48:13;;;;;;;15.13;13.50;;;;;;;10.19;78.30;100909.47;5078051;28;20409;-65
2021/10/29 00:50:39;;;;;;;15.20;13.63;;;;;;;10.78;75.99;100901.59;5077980;28;20474;-65
2021/10/29 00:53:04;;;;;;;15.27;13.70;;;;;;;10.69;75.89;100897.97;5078536;28;20172;-65
2021/10/29 00:55:29;;;;;;;14.90;13.40;;;;;;;10.60;75.83;100904.84;5078029;28;20706;-64
2021/10/29 00:57:55;;;;;;;15.70;13.53;;;;;;;10.62;76.74;100894.44;5078154;28;20204;-64
2021/10/29 01:00:21;;;;;;;15.37;13.80;;;;;;;10.67;76.20;100899.72;5061301;28;20200;-65
2021/10/29 01:02:46;;;;;;;14.77;13.27;;;;;;;10.81;75.47;100897.25;5077991;28;20259;-65
2021/10/29 01:05:11;;;;;;;15.73;14.10;;;;;;;10.68;75.37;100897.13;5077988;28;20242;-64
2021/10/29 01:07:37;;;;;;;15.17;13.60;;;;;;;10.81;74.48;100900.75;5078603;28;20180;-64
2021/10/29 01:10:04;;;;;;;16.90;15.10;;;;;;;10.56;75.79;100891.75;5060999;28;20172;-64
2021/10/29 01:12:30;;;;;;;16.27;14.67;;;;;;;10.75;75.19;100892.84;5077981;28;20415;-64
2021/10/29 01:14:56;;;;;;;15.80;13.37;;;;;;;10.53;75.50;100889.13;5078288;28;20411;-64
2021/10/29 01:17:22;;;;;;;23.90;14.77;;;;;;;10.56;75.58;100899.59;5077982;28;20196;-63
2021/10/29 01:19:53;;;;;;;17.23;14.70;;;;;;;10.67;75.49;100886.69;5077933;28;20493;-65
2021/10/29 01:22:19;;;;;;;17.33;15.43;;;;;;;10.45;75.39;100896.84;5078135;28;20169;-65
2021/10/29 01:24:45;;;;;;;15.87;14.27;;;;;;;10.67;75.89;100889.28;5077867;28;20809;-64
2021/10/29 01:27:11;;;;;;;16.97;14.10;;;;;;;10.26;77.33;100885.28;5060520;28;20465;-65
2021/10/29 01:29:38;;;;;;;17.27;14.20;;;;;;;10.37;75.39;100893.25;5060550;28;20191;-65
2021/10/29 01:32:03;;;;;;;17.00;14.60;;;;;;;10.61;74.88;100882.28;5060396;28;20407;-65
2021/10/29 01:34:29;;;;;;;16.17;14.57;;;;;;;10.37;75.73;100894.13;5060378;28;20465;-65
2021/10/29 01:36:55;;;;;;;20.77;15.30;;;;;;;10.60;74.78;100886.59;5078165;28;20173;-65
2021/10/29 01:39:20;;;;;;;16.70;14.90;;;;;;;10.48;75.91;100891.66;5077754;28;20504;-65
2021/10/29 01:41:45;;;;;;;16.40;14.40;;;;;;;10.26;76.74;100890.50;5077396;28;20219;-65
2021/10/29 01:44:13;;;;;;;16.13;14.20;;;;;;;10.31;76.21;100896.63;5078162;28;20158;-65
2021/10/29 01:46:38;;;;;;;16.77;14.90;;;;;;;9.93;76.95;100890.03;5077584;28;20204;-65
2021/10/29 01:49:04;;;;;;;16.07;14.37;;;;;;;10.04;77.34;100890.19;5077580;28;20430;-64
2021/10/29 01:51:30;;;;;;;15.77;14.17;;;;;;;10.12;77.03;100882.50;5077387;28;20216;-65
2021/10/29 01:53:56;;;;;;;16.07;14.33;;;;;;;9.53;78.52;100888.53;5060877;28;20169;-64
2021/10/29 01:56:21;;;;;;;16.67;14.90;;;;;;;9.81;78.13;100879.44;5061800;28;20442;-65
2021/10/29 01:58:46;;;;;;;16.40;14.70;;;;;;;9.39;79.28;100884.00;5078484;28;20400;-65
2021/10/29 02:01:12;;;;;;;17.03;15.23;;;;;;;9.35;80.31;100889.09;5081790;28;20341;-64
2021/10/29 02:03:37;;;;;;;16.97;15.10;;;;;;;9.33;79.49;100881.28;5082998;28;20430;-64
2021/10/29 02:06:03;;;;;;;17.03;15.30;;;;;;;9.14;80.83;100879.22;5082396;28;20476;-63
2021/10/29 02:08:29;;;;;;;18.40;15.80;;;;;;;9.05;80.54;100875.59;5081964;28;20264;-64
2021/10/29 02:10:54;;;;;;;18.50;16.00;;;;;;;9.25;79.53;100872.47;5083001;28;20490;-65
2021/10/29 02:13:20;;;;;;;16.63;14.93;;;;;;;9.18;80.98;100881.03;5082835;28;20187;-64
2021/10/29 02:15:47;;;;;;;17.13;15.33;;;;;;;9.33;79.67;100872.59;5081853;28;20165;-65
2021/10/29 02:18:12;;;;;;;18.17;15.80;;;;;;;9.47;78.99;100867.63;5083766;28;20442;-64
2021/10/29 02:20:38;;;;;;;16.93;15.23;;;;;;;9.37;79.51;100862.25;5082720;28;20462;-64
2021/10/29 02:23:03;;;;;;;17.43;15.20;;;;;;;9.21;79.49;100855.91;5082660;28;20176;-64
2021/10/29 02:25:29;;;;;;;22.27;16.80;;;;;;;9.22;79.00;100854.22;5083515;28;20176;-65
2021/10/29 02:27:55;;;;;;;19.70;16.47;;;;;;;9.16;79.06;100857.59;5080787;28;20176;-65
2021/10/29 02:30:20;;;;;;;17.17;15.40;;;;;;;9.41;78.52;100847.59;5080610;28;20409;-65
2021/10/29 02:32:45;;;;;;;18.80;16.80;;;;;;;9.15;79.97;100848.03;5080779;28;20191;-64
2021/10/29 02:35:11;;;;;;;17.40;15.60;;;;;;;8.88;80.11;100845.81;5080573;28;20173;-64
2021/10/29 02:37:36;;;;;;;19.50;17.33;;;;;;;9.57;78.53;100851.31;5080478;28;20183;-64
2021/10/29 02:40:02;;;;;;;18.83;16.70;;;;;;;8.90;79.01;100849.31;5080874;28;20513;-64
2021/10/29 02:42:27;;;;;;;19.60;17.23;;;;;;;8.85;79.83;100840.53;5080147;28;20234;-65
2021/10/29 02:44:53;;;;;;;19.90;17.23;;;;;;;8.97;79.88;100838.19;5080132;28;20427;-63
2021/10/29 02:47:18;;;;;;;18.67;16.67;;;;;;;9.30;78.46;100842.19;5080804;28;20409;-64
2021/10/29 02:49:44;;;;;;;18.30;16.40;;;;;;;8.84;80.57;100828.41;5080280;28;20226;-64
2021/10/29 02:52:09;;;;;;;21.60;17.83;;;;;;;9.07;79.68;100827.06;5079887;28;20252;-65
2021/10/29 02:54:35;;;;;;;21.80;18.10;;;;;;;9.12;78.84;100834.09;5063538;28;20193;-64
2021/10/29 02:57:01;;;;;;;18.40;16.50;;;;;;;9.21;79.91;100824.69;5080036;28;20518;-65
2021/10/29 02:59:26;;;;;;;18.70;16.70;;;;;;;9.24;79.34;100816.06;5080211;28;20177;-65
2021/10/29 03:01:51;;;;;;;20.17;17.97;;;;;;;9.32;79.20;100822.28;5080403;28;20204;-65
2021/10/29 03:04:17;;;;;;;18.70;16.70;;;;;;;9.27;78.73;100814.41;5079918;28;20177;-64
2021/10/29 03:06:43;;;;;;;21.53;18.23;;;;;;;8.83;80.93;100816.25;5079812;28;20203;-64
2021/10/29 03:09:08;;;;;;;21.00;17.37;;;;;;;8.71;80.77;100823.00;5080710;28;20196;-65
2021/10/29 03:11:33;;;;;;;18.70;16.50;;;;;;;9.14;79.94;100819.41;5079862;28;20315;-64
2021/10/29 03:13:59;;;;;;;21.60;18.90;;;;;;;9.09;78.98;100811.50;5045819;28;20549;-64
2021/10/29 03:16:24;;;;;;;22.10;18.90;;;;;;;9.30;78.79;100802.31;5080308;28;20188;-65
2021/10/29 03:18:49;;;;;;;20.27;18.10;;;;;;;8.90;79.59;100802.50;5079657;28;20180;-65
2021/10/29 03:21:15;;;;;;;22.37;18.70;;;;;;;9.27;78.78;100803.13;5079467;28;20216;-64
2021/10/29 03:23:41;;;;;;;18.77;16.47;;;;;;;8.67;79.33;100805.56;5080137;28;20165;-66
2021/10/29 03:26:06;;;;;;;22.40;18.67;;;;;;;8.81;79.50;100807.53;5079587;28;20176;-66
2021/10/29 03:28:31;;;;;;;23.20;19.47;;;;;;;8.98;79.28;100806.09;5062557;28;20476;-67
2021/10/29 03:30:57;;;;;;;21.53;18.60;;;;;;;8.96;79.33;100806.94;5079798;28;20209;-64
2021/10/29 03:33:22;;;;;;;22.30;18.77;;;;;;;8.63;79.91;100814.16;5079326;28;20184;-64
2021/10/29 03:35:47;;;;;;;22.30;19.90;;;;;;;9.03;77.96;100804.47;5079631;28;20415;-65
2021/10/29 03:38:36;;;;;;;21.67;17.63;;;;;;;9.13;78.68;100815.03;5079980;28;20451;-64
2021/10/29 03:41:00;;;;;;;20.50;17.83;;;;;;;9.06;78.09;100817.50;5078931;28;20204;-64
2021/10/29 03:43:37;;;;;;;21.90;19.47;;;;;;;8.93;78.90;100813.84;5079596;28;20502;-66
2021/10/29 03:46:08;;;;;;;19.70;16.70;;;;;;;8.48;80.17;100813.88;5079143;28;20400;-64
2021/10/29 03:51:20;;;;;;;24.70;20.83;;;;;;;8.69;79.84;100819.47;5078765;28;20718;-64
2021/10/29 03:56:19;;;;;;;25.20;20.80;;;;;;;8.54;81.70;100819.19;5078834;28;20610;-64
2021/10/29 03:58:50;;;;;;;24.57;19.60;;;;;;;8.33;81.09;100812.69;5078961;28;20169;-64
2021/10/29 04:01:15;;;;;;;25.23;21.07;;;;;;;8.49;80.89;100826.03;5078649;28;20469;-64
2021/10/29 04:03:42;;;;;;;24.47;21.23;;;;;;;8.48;81.02;100821.66;5061459;28;20411;-65
2021/10/29 04:06:08;;;;;;;23.70;19.77;;;;;;;8.48;81.04;100817.31;5079766;28;20523;-64
2021/10/29 04:08:33;;;;;;;25.37;21.00;;;;;;;7.93;82.52;100817.06;5078784;28;20407;-66
2021/10/29 04:10:58;;;;;;;23.30;19.50;;;;;;;8.28;82.85;100809.13;5078601;28;20169;-65
2021/10/29 04:13:27;;;;;;;26.73;20.87;;;;;;;8.03;82.28;100811.22;5079063;28;20538;-66
2021/10/29 04:15:52;;;;;;;24.50;20.67;;;;;;;8.39;81.22;100807.63;5078663;28;20175;-65
2021/10/29 04:18:17;;;;;;;23.90;20.50;;;;;;;8.46;80.67;100810.34;5078595;28;20411;-65
2021/10/29 04:20:43;;;;;;;24.13;21.00;;;;;;;8.34;79.93;100806.66;5078601;28;20280;-64
2021/10/29 04:23:08;;;;;;;22.90;20.50;;;;;;;8.43;81.70;100817.22;5060576;28;20527;-64
2021/10/29 04:25:34;;;;;;;24.37;21.47;;;;;;;8.30;81.46;100802.22;5078436;28;20172;-64
2021/10/29 04:28:09;;;;;;;25.57;21.93;;;;;;;8.17;81.43;100808.03;5078970;28;20175;-65
2021/10/29 04:30:35;;;;;;;24.93;20.50;;;;;;;7.99;81.29;100798.16;5078195;28;20482;-64
2021/10/29 04:33:07;;;;;;;25.80;20.97;;;;;;;8.26;81.29;100814.28;5078284;28;20419;-64
2021/10/29 04:35:34;;;;;;;26.63;20.70;;;;;;;8.26;80.77;100814.28;5078391;28;20185;-63
2021/10/29 04:37:59;;;;;;;23.00;20.47;;;;;;;8.25;80.07;100807.34;5078328;28;20402;-65
2021/10/29 04:40:24;;;;;;;23.57;20.20;;;;;;;8.19;80.22;100801.16;5078605;28;20443;-64
2021/10/29 04:42:50;;;;;;;27.80;22.23;;;;;;;8.09;80.54;100806.16;5078076;28;20600;-65
2021/10/29 04:45:16;;;;;;;23.70;20.07;;;;;;;8.24;81.13;100794.31;5077950;28;20215;-65
2021/10/29 04:47:41;;;;;;;29.00;23.13;;;;;;;8.43;80.34;100800.78;5078811;28;20169;-64
2021/10/29 04:50:07;;;;;;;23.90;20.70;;;;;;;8.25;80.65;100796.06;5078090;28;20221;-64
2021/10/29 04:52:32;;;;;;;25.57;21.07;;;;;;;8.14;79.52;100798.44;5078043;28;20255;-64
2021/10/29 04:54:58;;;;;;;23.23;20.07;;;;;;;8.36;79.89;100799.78;5078942;28;20431;-65
2021/10/29 04:57:23;;;;;;;24.33;19.83;;;;;;;7.81;80.95;100793.44;5078046;28;20563;-64
2021/10/29 04:59:48;;;;;;;22.53;20.07;;;;;;;7.86;81.60;100792.69;5077847;28;20239;-64
2021/10/29 05:02:14;;;;;;;26.47;21.73;;;;;;;7.61;81.81;100791.25;5078141;28;20179;-64
2021/10/29 05:04:40;;;;;;;25.67;21.30;;;;;;;7.66;81.85;100799.13;5077943;28;20173;-63
2021/10/29 05:07:05;;;;;;;28.17;20.70;;;;;;;7.86;80.87;100797.00;5078131;28;20168;-65
2021/10/29 05:09:30;;;;;;;24.33;20.30;;;;;;;7.97;81.56;100789.44;5079026;28;20188;-65
2021/10/29 05:11:56;;;;;;;25.93;20.67;;;;;;;7.92;80.79;100794.53;5077801;28;20199;-65
2021/10/29 05:14:21;;;;;;;25.70;20.77;;;;;;;7.89;80.27;100797.94;5044030;28;20187;-65
2021/10/29 05:16:46;;;;;;;24.70;21.20;;;;;;;7.49;82.79;100801.38;5078707;28;20165;-64
2021/10/29 05:19:12;;;;;;;30.13;21.50;;;;;;;7.12;83.23;100801.38;5078147;28;20318;-65
2021/10/29 05:21:37;;;;;;;27.63;21.93;;;;;;;7.49;82.56;100791.84;5078184;28;20200;-64
2021/10/29 05:24:02;;;;;;;27.80;21.70;;;;;;;7.72;80.91;100794.97;5064831;28;20183;-63
2021/10/29 05:26:28;;;;;;;24.00;20.70;;;;;;;7.53;82.59;100800.59;5077954;28;20177;-64
2021/10/29 05:28:53;;;;;;;25.00;20.47;;;;;;;7.48;82.32;100794.41;5077804;28;20581;-64
2021/10/29 05:31:18;;;;;;;27.30;21.10;;;;;;;7.48;82.36;100790.13;5078493;28;20173;-65
2021/10/29 05:33:43;;;;;;;25.13;21.30;;;;;;;7.78;81.48;100780.38;5077703;28;20173;-64
2021/10/29 05:36:09;;;;;;;27.97;21.33;;;;;;;7.79;81.49;100777.81;5063616;28;20169;-64
2021/10/29 05:38:34;;;;;;;24.77;20.47;;;;;;;7.73;82.40;100785.47;5082186;28;20467;-64
2021/10/29 05:41:01;;;;;;;25.97;20.17;;;;;;;7.38;82.25;100786.41;5080973;28;20275;-64
2021/10/29 05:43:27;;;;;;;26.67;21.00;;;;;;;7.39;82.20;100784.72;5081243;28;20438;-65
2021/10/29 05:45:52;;;;;;;26.97;21.57;;;;;;;7.30;82.01;100785.38;5064344;28;20366;-64
2021/10/29 05:48:18;;;;;;;25.47;20.60;;;;;;;7.48;81.95;100794.41;5081605;28;20197;-64
2021/10/29 05:50:50;;;;;;;25.87;20.60;;;;;;;7.72;81.32;100773.34;5080900;28;20224;-64
2021/10/29 05:55:54;;;;;;;28.70;22.43;;;;;;;7.49;81.25;100785.81;5081000;28;20828;-64
2021/10/29 05:58:19;;;;;;;30.53;22.30;;;;;;;7.62;81.96;100781.75;5081010;28;20477;-64
2021/10/29 06:00:44;;;;;;;36.27;21.90;;;;;;;7.50;82.19;100787.56;5080801;28;20205;-64
2021/10/29 06:03:10;;;;;;;31.77;23.17;;;;;;;7.58;81.12;100781.69;5081128;28;20561;-64
2021/10/29 06:05:35;;;;;;;24.53;20.20;;;;;;;7.40;81.24;100778.66;5081456;28;20195;-64
2021/10/29 06:08:01;;;;;;;25.27;21.10;;;;;;;7.23;81.83;100780.88;5080890;28;20168;-65
2021/10/29 06:10:26;;;;;;;23.70;19.70;;;;;;;7.60;81.17;100786.91;5080829;28;20588;-65
2021/10/29 06:12:51;;;;;;;27.40;20.10;;;;;;;7.96;80.74;100783.38;5081503;28;20176;-63
2021/10/29 06:15:18;;;;;;;25.10;19.83;;;;;;;7.73;80.61;100783.75;5080987;28;20172;-65
2021/10/29 06:17:44;;;;;;;29.90;20.30;;;;;;;7.85;81.07;100784.88;5080836;28;20161;-64
2021/10/29 06:20:11;;;;;;;25.83;20.80;;;;;;;8.04;80.26;100789.59;5063500;28;20439;-65
2021/10/29 06:22:39;;;;;;;22.70;19.70;;;;;;;7.59;80.49;100785.19;5080494;28;20779;-65
2021/10/29 06:25:15;;;;;;;28.30;20.60;;;;;;;7.76;80.04;100788.13;5080561;28;20402;-64
2021/10/29 06:30:24;;;;;;;25.30;20.27;;;;;;;7.72;80.61;100789.78;5065754;28;20821;-64
2021/10/29 06:32:50;;;;;;;26.00;20.10;;;;;;;7.37;81.25;100797.66;5080507;28;20415;-67
2021/10/29 06:35:15;;;;;;;30.07;20.60;;;;;;;7.67;81.17;100793.13;5081153;28;20169;-66
2021/10/29 06:37:41;;;;;;;25.60;20.40;;;;;;;7.55;80.45;100785.94;5082787;28;20165;-64
2021/10/29 06:40:10;;;;;;;27.80;21.40;;;;;;;7.55;80.45;100781.63;5080615;28;20228;-65
2021/10/29 06:42:36;;;;;;;28.20;20.87;;;;;;;7.32;81.57;100796.66;5080553;28;20253;-65
2021/10/29 06:45:21;;;;;;;25.53;19.17;;;;;;;7.71;80.37;100785.44;5080656;28;20727;-64
2021/10/29 06:47:52;;;;;;;26.03;19.20;;;;;;;7.96;79.72;100782.50;5080330;28;20203;-64
2021/10/29 07:01:22;;;;;;;27.07;19.70;;;;;;;7.12;82.41;100784.91;5107055;28;20434;-66
2021/10/29 07:12:29;;;;;;;23.70;18.93;;;;;;;8.67;75.56;100787.38;5100131;28;20467;-65
2021/10/29 07:42:24;;;;;;;18.53;16.47;;;;;;;12.26;61.30;100778.25;5078970;28;20431;-70
2021/10/29 07:44:50;;;;;;;17.77;15.67;;;;;;;12.58;60.38;100775.72;5079398;28;20415;-68
2021/10/29 07:47:15;;;;;;;17.90;16.00;;;;;;;13.76;58.55;100770.44;5079034;28;20423;-71
2021/10/29 07:49:40;;;;;;;16.80;14.80;;;;;;;14.39;56.24;100779.78;5079201;28;20238;-71
2021/10/29 07:52:06;;;;;;;19.90;15.80;;;;;;;13.77;57.32;100778.31;5060057;28;20499;-72
2021/10/29 07:54:32;;;;;;;17.43;15.57;;;;;;;13.73;56.92;100773.91;5058940;28;20188;-72
2021/10/29 07:56:57;;;;;;;16.60;14.67;;;;;;;14.53;55.57;100770.09;5058176;28;20439;-69
2021/10/29 07:59:25;;;;;;;16.93;15.20;;;;;;;14.60;54.18;100768.28;5073407;28;20191;-67
2021/10/29 08:01:51;;;;;;;17.83;16.00;;;;;;;14.96;52.96;100768.94;5078135;28;20216;-68
2021/10/29 08:04:18;;;;;;;16.30;14.60;;;;;;;13.96;55.26;100772.97;5059961;28;20427;-68
2021/10/29 08:06:44;;;;;;;16.47;14.67;;;;;;;13.86;55.39;100779.16;5078696;28;20177;-67
2021/10/29 08:09:10;;;;;;;16.23;14.63;;;;;;;14.79;53.76;100776.97;5078610;28;20484;-67
2021/10/29 08:11:36;;;;;;;16.80;15.00;;;;;;;13.91;55.85;100770.41;5078227;28;20422;-67
2021/10/29 08:14:01;;;;;;;15.93;14.27;;;;;;;14.68;52.64;100771.78;5078833;28;20447;-67
2021/10/29 08:16:27;;;;;;;18.10;14.90;;;;;;;15.11;52.61;100768.81;5078493;28;20176;-67
2021/10/29 08:18:52;;;;;;;17.07;15.20;;;;;;;14.93;53.36;100763.72;5078400;28;20263;-67
2021/10/29 08:21:18;;;;;;;16.93;15.10;;;;;;;15.21;51.85;100766.97;5078250;28;20220;-68
2021/10/29 08:23:44;;;;;;;16.33;14.00;;;;;;;15.37;52.03;100764.19;5078252;28;20445;-68
2021/10/29 08:26:11;;;;;;;16.53;14.93;;;;;;;15.22;52.44;100766.09;5078155;28;20184;-68
2021/10/29 08:28:38;;;;;;;15.93;14.23;;;;;;;16.47;49.46;100771.69;5078603;28;20564;-69
2021/10/29 08:31:03;;;;;;;17.03;15.03;;;;;;;15.53;50.58;100763.16;5078019;28;20506;-69
2021/10/29 08:33:28;;;;;;;15.00;13.50;;;;;;;15.90;50.28;100757.53;5060690;28;20514;-69
2021/10/29 08:35:54;;;;;;;15.57;14.00;;;;;;;15.95;50.33;100762.72;5077851;28;20286;-68
2021/10/29 08:38:21;;;;;;;15.73;14.23;;;;;;;15.95;51.16;100758.34;5078164;28;20192;-69
2021/10/29 08:40:47;;;;;;;17.27;14.80;;;;;;;16.87;48.94;100746.50;5077791;28;20596;-69
2021/10/29 08:43:13;;;;;;;15.43;13.77;;;;;;;16.97;47.99;100751.63;5078389;28;20411;-69
2021/10/29 08:45:39;;;;;;;17.70;15.80;;;;;;;16.60;48.93;100752.19;5078044;28;20417;-69
2021/10/29 08:48:05;;;;;;;15.20;13.60;;;;;;;17.49;47.09;100744.56;5077959;28;20180;-68
2021/10/29 08:50:31;;;;;;;17.40;14.23;;;;;;;17.60;46.68;100740.84;5077902;28;20294;-68
2021/10/29 08:52:57;;;;;;;14.70;13.30;;;;;;;18.30;44.82;100742.94;5077601;28;20426;-67
2021/10/29 08:55:29;;;;;;;14.93;13.53;;;;;;;18.32;44.78;100734.09;5077844;28;20427;-67
2021/10/29 08:57:55;;;;;;;15.80;14.07;;;;;;;19.05;43.38;100729.75;5078008;28;20238;-69
2021/10/29 09:00:28;;;;;;;16.87;13.30;;;;;;;17.98;45.53;100745.38;5077470;28;20745;-67
2021/10/29 09:05:34;;;;;;;15.03;13.57;;;;;;;18.28;45.18;100739.47;5060497;28;20415;-68
2021/10/29 09:08:13;;;;;;;15.20;13.67;;;;;;;18.30;44.73;100735.88;5077834;28;20414;-67
2021/10/29 09:33:01;;;;;;;12.60;11.30;;;;;;;18.05;45.97;100710.94;5081539;28;20425;-66
2021/10/29 09:35:29;;;;;;;16.03;12.90;;;;;;;18.58;44.41;100705.31;5081259;28;20415;-66
2021/10/29 09:38:06;;;;;;;13.73;11.80;;;;;;;18.59;45.73;100712.34;5081616;28;20425;-69
2021/10/29 09:40:34;;;;;;;13.67;12.37;;;;;;;16.61;49.80;100711.81;5081344;28;20765;-69
2021/10/29 09:43:13;;;;;;;15.10;12.50;;;;;;;17.05;48.75;100714.63;5081727;28;20467;-68
2021/10/29 09:46:04;;;;;;;14.53;13.03;;;;;;;18.07;47.58;100703.88;5082524;28;20419;-69
2021/10/29 09:48:47;;;;;;;16.17;13.30;;;;;;;18.21;46.70;100700.94;5082086;28;20488;-68
2021/10/29 09:51:15;;;;;;;14.43;13.03;;;;;;;17.67;48.65;100709.06;5081390;28;20512;-67
2021/10/29 09:53:59;;;;;;;13.30;11.90;;;;;;;17.23;48.52;100712.56;5080961;28;20433;-69
2021/10/29 09:58:58;;;;;;;12.23;11.10;;;;;;;18.73;45.99;100702.34;5080999;28;20415;-69
2021/10/29 10:01:28;;;;;;;13.57;12.30;;;;;;;18.12;47.49;100700.22;5080273;28;20465;-68
2021/10/29 10:03:54;;;;;;;14.63;12.97;;;;;;;17.93;48.08;100696.28;5081073;28;20404;-68
2021/10/29 10:06:23;;;;;;;14.03;12.70;;;;;;;17.05;50.62;100704.09;5063462;28;20816;-69
2021/10/29 10:08:53;;;;;;;13.23;11.90;;;;;;;17.15;49.72;100703.03;5080823;28;20465;-68
2021/10/29 10:11:19;;;;;;;13.07;11.70;;;;;;;17.48;49.48;100695.38;5080641;28;20415;-70
2021/10/29 10:13:45;;;;;;;13.47;12.17;;;;;;;16.91;50.34;100692.94;5063184;28;20813;-69
2021/10/29 10:16:11;;;;;;;12.93;11.63;;;;;;;18.18;48.23;100678.13;5063568;28;20173;-69
2021/10/29 10:18:38;;;;;;;13.40;12.00;;;;;;;17.87;48.91;100676.13;5062794;28;20739;-70
2021/10/29 10:21:05;;;;;;;13.10;11.07;;;;;;;18.17;48.39;100682.53;5079490;28;20982;-69
2021/10/29 10:23:36;;;;;;;14.63;11.60;;;;;;;16.46;52.45;100689.22;5063136;28;20419;-68
2021/10/29 10:26:20;;;;;;;12.70;11.60;;;;;;;17.48;49.25;100684.84;5084291;28;20827;-71
2021/10/29 10:29:02;;;;;;;12.87;11.63;;;;;;;17.04;50.80;100685.69;5049846;28;20419;-69
2021/10/29 10:54:20;;;;;;;11.90;10.73;;;;;;;19.29;46.89;100653.34;5100317;28;20827;-67
2021/10/29 10:57:18;;;;;;;10.60;9.70;;;;;;;20.31;44.25;100647.66;5100225;28;20421;-66
2021/10/29 11:05:15;;;;;;;11.00;9.90;;;;;;;20.66;44.05;100637.69;5080124;28;20472;-67
2021/10/29 11:10:20;;;;;;;11.00;10.00;;;;;;;19.86;45.54;100619.97;5059380;28;20711;-67
2021/10/29 11:12:46;;;;;;;10.40;9.40;;;;;;;19.79;45.81;100624.53;5059273;28;20503;-68
2021/10/29 11:15:25;;;;;;;10.20;9.10;;;;;;;20.41;43.58;100609.38;5059458;28;20415;-70
2021/10/29 11:18:28;;;;;;;10.27;9.30;;;;;;;20.75;42.81;100615.38;5041818;28;20415;-70
2021/10/29 11:20:56;;;;;;;9.27;8.37;;;;;;;19.94;45.24;100606.50;5059290;28;20467;-67
2021/10/29 11:23:32;;;;;;;9.00;8.10;;;;;;;20.25;43.93;100603.72;5059427;28;20501;-69
2021/10/29 11:26:03;;;;;;;8.77;7.90;;;;;;;19.99;44.70;100599.28;5059203;28;20439;-67
2021/10/29 11:28:37;;;;;;;8.97;8.17;;;;;;;19.37;46.63;100601.13;5059135;28;20408;-68
2021/10/29 11:31:05;;;;;;;9.47;8.67;;;;;;;19.16;47.19;100602.63;5041754;28;20412;-67
2021/10/29 11:33:31;;;;;;;8.60;7.80;;;;;;;19.32;46.45;100605.66;5057646;28;20451;-67
2021/10/29 11:36:02;;;;;;;9.53;8.63;;;;;;;19.01;47.39;100598.59;5059110;28;20388;-67
2021/10/29 11:38:30;;;;;;;9.03;8.23;;;;;;;18.77;48.24;100598.34;5059097;28;20408;-67
2021/10/29 11:40:56;;;;;;;8.70;7.80;;;;;;;19.53;46.90;100591.81;5058773;28;20466;-67
2021/10/29 11:43:32;;;;;;;10.20;7.80;;;;;;;19.36;46.79;100580.88;5059448;28;20855;-69
2021/10/29 11:46:00;;;;;;;10.43;7.57;;;;;;;19.51;47.39;100584.84;5058818;28;20412;-68
2021/10/29 11:48:25;;;;;;;9.10;7.83;;;;;;;20.30;45.28;100577.13;5058850;28;20431;-69
2021/10/29 11:51:05;;;;;;;7.70;7.00;;;;;;;20.10;45.80;100575.13;5058462;28;20877;-68
2021/10/29 11:53:32;;;;;;;8.80;8.03;;;;;;;20.66;44.50;100566.16;5058656;28;20184;-67
2021/10/29 11:56:03;;;;;;;8.13;7.30;;;;;;;19.10;47.63;100571.06;5058545;28;20416;-70
2021/10/29 12:01:28;;;;;;;8.70;7.80;;;;;;;19.66;47.09;100575.56;5058549;28;20474;-67
2021/10/29 12:07:22;;;;;;;7.53;6.83;;;;;;;19.75;46.54;100570.00;5044098;28;20419;-67
2021/10/29 12:09:28;;;;;;;8.03;7.20;;;;;;;18.93;48.48;100563.63;5052374;28;20551;-66
2021/10/29 12:11:56;;;;;;;7.77;6.93;;;;;;;19.49;46.60;100573.47;5058668;28;20424;-67
2021/10/29 12:14:27;;;;;;;7.90;7.00;;;;;;;19.41;47.08;100565.75;5058424;28;20431;-67
2021/10/29 12:16:59;;;;;;;6.60;6.00;;;;;;;19.89;46.17;100555.50;5058442;28;20412;-67
2021/10/29 12:19:24;;;;;;;9.60;6.63;;;;;;;19.08;47.32;100557.91;5058376;28;20415;-68
2021/10/29 12:22:04;;;;;;;6.90;6.30;;;;;;;19.44;46.68;100546.28;5058161;28;20864;-67
2021/10/29 12:24:29;;;;;;;6.60;6.00;;;;;;;18.77;47.99;100540.25;5057992;28;20176;-67
2021/10/29 12:26:57;;;;;;;9.03;6.30;;;;;;;18.77;48.49;100550.81;5058297;28;20726;-68
2021/10/29 12:29:24;;;;;;;8.70;6.30;;;;;;;19.28;47.61;100556.44;5058538;28;20162;-67
2021/10/29 12:32:31;;;;;;;7.10;6.40;;;;;;;18.82;48.37;100545.38;5057797;28;20431;-67
2021/10/29 12:38:07;;;;;;;6.27;5.67;;;;;;;18.84;48.19;100544.44;5057912;28;20443;-68
2021/10/29 12:58:51;;;;;;;8.40;5.90;;;;;;;18.35;49.39;100506.19;5044657;28;20416;-70
2021/10/29 13:03:23;;;;;;;5.70;5.20;;;;;;;18.44;48.58;100524.44;5057171;28;20502;-70
2021/10/29 13:05:55;;;;;;;5.70;5.20;;;;;;;18.11;47.80;100524.38;5057609;28;20418;-70
2021/10/29 13:08:22;;;;;;;6.40;4.70;;;;;;;18.34;46.39;100522.91;5057743;28;20457;-69
2021/10/29 13:10:53;;;;;;;6.20;4.90;;;;;;;18.21;46.81;100511.81;5057561;28;20695;-70
2021/10/29 13:13:26;;;;;;;6.20;5.63;;;;;;;18.47;47.06;100518.19;5057564;28;20412;-70
2021/10/29 13:15:57;;;;;;;5.50;5.00;;;;;;;18.64;46.34;100504.53;5041240;28;20678;-69
2021/10/29 13:18:26;;;;;;;5.97;5.27;;;;;;;18.06;46.95;100501.66;5057579;28;20419;-68
2021/10/29 13:21:25;;;;;;;5.87;5.23;;;;;;;18.40;47.87;100504.31;5057652;28;20447;-68
2021/10/29 13:24:27;;;;;;;5.90;5.20;;;;;;;18.11;49.84;100494.50;5057347;28;20643;-68
2021/10/29 13:26:51;;;;;;;5.90;5.40;;;;;;;17.96;50.68;100493.97;5040039;28;20483;-67
2021/10/29 13:38:01;;;;;;;6.27;5.67;;;;;;;17.54;51.99;100499.34;5026833;28;20417;-66
2021/10/29 13:54:42;;;;;;;5.80;5.30;;;;;;;17.34;52.18;100502.44;5057157;28;20424;-68
2021/10/29 13:59:52;;;;;;;7.87;5.80;;;;;;;17.29;52.03;100504.28;5060738;28;20416;-67
2021/10/29 14:02:37;;;;;;;6.17;5.67;;;;;;;16.79;53.55;100509.69;5060538;28;20536;-66
2021/10/29 14:24:30;;;;;;;6.27;5.60;;;;;;;16.96;53.84;100478.66;5060020;28;20423;-68
2021/10/29 14:29:45;;;;;;;6.50;5.70;;;;;;;16.40;55.44;100470.97;5045655;28;20439;-67
2021/10/29 14:34:57;;;;;;;6.30;5.70;;;;;;;16.28;56.15;100460.69;5060120;28;20866;-67